Briefing drone pour Bron (LFLY)

Rechercher une autre localisation

Conditions de vol :


Nous sommes le : Dimanche 24 octobre 2021
Il est 18:50 UTC (20:50 LT)

Lever de soleil : 05:42 UTC (07:42 LT)
Coucher de soleil : 17:06 UTC (19:06 LT)

Météo

L'essentiel des conditions de vol

VIGILANCE MÉTÉO FRANCE - Rhône (69)
Pas de vigilances particulieres
METAR de LFLY
LFLY 241830Z AUTO 13003KT CAVOK 11/08 Q1022 NOSIG

Date d'émission: 24/10/2021
Heure d'émission: 18:30 UTC
Vent: 130° pour 3 KT (6 km/h)
Visibilité horizontale: > 10 km
Plafond : Plafond et visibilité OK (CAVOK)
Température: 11 °C
Point de rosée: 8 °C
Humidité: 82%
Pression (QNH): 1022 hPa
Conditions: Pas de changement dans les 2 heures (NOSIG)
TAF de LFLY
LFLY 241700Z 2418/2518 VRB03KT CAVOK

Conditions prévues :

Heure d'émission : Bulletin éffectué le 24 à 18:00 UTC
Prévision : Valide du 24 a 18:00 UTC au 25 a 18:00 UTC
Vent : Variable pour 3 KT (6 km/h)
Visibilité : > 10 km
WEBCAM POUR BRON

Réglementation

Voler en sécurité

CARTES AERONAUTIQUE 1/500.000
CARTES VAC (LFLY)
SUP AIP




Chargement des AIP...
NOTAM (BRON + Terrain à proximité / FIR )




Chargement des NOTAMS...
CONTACT PREFECTURE 69


Avertissement : Les données mises à disposition sont indicatives. Oxygène Drone ne pourra être tenu responsable de dégâts causés aux biens et aux personnes.